createdAt,value
2023-02-12T00:01:40.429Z,97394.00
2023-02-12T00:05:43.279Z,97392.00
2023-02-12T00:09:46.313Z,97390.00
2023-02-12T00:13:49.511Z,97389.00
2023-02-12T00:17:53.630Z,97408.00
2023-02-12T00:21:56.742Z,97389.00
2023-02-12T00:25:59.583Z,97387.00
2023-02-12T00:30:02.562Z,97389.00
2023-02-12T00:34:06.959Z,97386.00
2023-02-12T00:38:09.727Z,97405.00
2023-02-12T00:42:12.729Z,97392.00
2023-02-12T00:46:15.993Z,97394.00
2023-02-12T00:50:21.353Z,97390.00
2023-02-12T00:54:24.094Z,97393.00
2023-02-12T00:58:27.057Z,97388.00
2023-02-12T01:02:29.881Z,97380.00
2023-02-12T01:06:34.025Z,97391.00
2023-02-12T01:10:36.799Z,97391.00
2023-02-12T01:14:39.567Z,97390.00
2023-02-12T01:18:42.388Z,97385.00
2023-02-12T01:22:46.849Z,97384.00
2023-02-12T01:26:49.717Z,97381.00
2023-02-12T01:30:52.651Z,97375.00
2023-02-12T01:34:55.654Z,97384.00
2023-02-12T01:38:59.809Z,97387.00
2023-02-12T01:43:03.519Z,97402.00
2023-02-12T01:47:07.305Z,97401.00
2023-02-12T01:51:15.163Z,97398.00
2023-02-12T01:55:20.662Z,97385.00
2023-02-12T01:59:24.880Z,97387.00
2023-02-12T02:03:27.982Z,97402.00
2023-02-12T02:07:31.605Z,97399.00
2023-02-12T02:11:53.255Z,97387.00
2023-02-12T02:16:01.004Z,97386.00
2023-02-12T02:20:52.284Z,97390.00
2023-02-12T02:25:33.776Z,97375.00
2023-02-12T02:29:54.780Z,97383.00
2023-02-12T02:34:04.538Z,97380.00
2023-02-12T02:38:17.981Z,97383.00
2023-02-12T02:42:28.982Z,97382.00
2023-02-12T02:46:36.197Z,97364.00
2023-02-12T02:50:44.859Z,97361.00
2023-02-12T02:54:51.800Z,97357.00
2023-02-12T02:58:58.946Z,97358.00
2023-02-12T03:03:07.127Z,97353.00
2023-02-12T03:07:14.798Z,97355.00
2023-02-12T03:11:25.660Z,97376.00
2023-02-12T03:15:34.952Z,97359.00
2023-02-12T03:19:43.276Z,97363.00
2023-02-12T03:23:52.831Z,97378.00
2023-02-12T03:28:02.842Z,97366.00
2023-02-12T03:32:17.330Z,97387.00
2023-02-12T03:36:32.052Z,97384.00
2023-02-12T03:40:41.252Z,97385.00
2023-02-12T03:44:51.636Z,97395.00
2023-02-12T03:49:02.094Z,97388.00
2023-02-12T03:53:05.918Z,97380.00
2023-02-12T03:57:13.364Z,97383.00
2023-02-12T04:01:16.464Z,97381.00
2023-02-12T04:05:21.913Z,97385.00
2023-02-12T04:09:26.582Z,97385.00
2023-02-12T04:13:43.238Z,97378.00
2023-02-12T04:17:55.864Z,97406.00
2023-02-12T04:22:15.471Z,97402.00
2023-02-12T04:26:24.958Z,97405.00
2023-02-12T04:30:33.250Z,97413.00
2023-02-12T04:34:47.099Z,97416.00
2023-02-12T04:38:54.915Z,97417.00
2023-02-12T04:42:57.880Z,97416.00
2023-02-12T04:47:02.511Z,97415.00
2023-02-12T04:51:05.792Z,97425.00
2023-02-12T04:55:09.192Z,97421.00
2023-02-12T04:59:12.156Z,97414.00
2023-02-12T05:03:19.392Z,97431.00
2023-02-12T05:07:22.334Z,97421.00
2023-02-12T05:11:25.717Z,97414.00
2023-02-12T05:15:28.589Z,97417.00
2023-02-12T05:19:33.053Z,97410.00
2023-02-12T05:23:38.520Z,97423.00
2023-02-12T05:27:41.326Z,97433.00
2023-02-12T05:31:44.242Z,97427.00
2023-02-12T05:35:48.470Z,97428.00
2023-02-12T05:39:51.271Z,97440.00
2023-02-12T05:43:54.413Z,97450.00
2023-02-12T05:47:58.036Z,97444.00
2023-02-12T05:52:02.185Z,97435.00
2023-02-12T05:56:11.546Z,97443.00
2023-02-12T06:00:15.659Z,97432.00
2023-02-12T06:04:19.965Z,97438.00
2023-02-12T06:08:24.160Z,97439.00
2023-02-12T06:12:26.980Z,97444.00
2023-02-12T06:16:30.563Z,97453.00
2023-02-12T06:20:33.369Z,97458.00
2023-02-12T06:24:37.582Z,97460.00
2023-02-12T06:28:40.448Z,97465.00
2023-02-12T06:32:43.312Z,97463.00
2023-02-12T06:36:47.881Z,97468.00
2023-02-12T06:40:52.006Z,97472.00
2023-02-12T06:44:54.755Z,97482.00
2023-02-12T06:48:58.588Z,97488.00
2023-02-12T06:53:01.322Z,97491.00
2023-02-12T06:57:05.480Z,97482.00
2023-02-12T07:01:14.984Z,97486.00
2023-02-12T07:05:17.935Z,97485.00
2023-02-12T07:09:20.996Z,97475.00
2023-02-12T07:13:25.338Z,97484.00
2023-02-12T07:17:30.096Z,97484.00
2023-02-12T07:21:33.024Z,97493.00
2023-02-12T07:25:35.803Z,97487.00
2023-02-12T07:29:39.980Z,97486.00
2023-02-12T07:33:43.533Z,97490.00
2023-02-12T07:37:46.317Z,97481.00
2023-02-12T07:41:49.082Z,97474.00
2023-02-12T07:45:53.479Z,97479.00
2023-02-12T07:49:56.547Z,97474.00
2023-02-12T07:54:00.539Z,97471.00
2023-02-12T07:58:03.295Z,97470.00
2023-02-12T08:02:07.839Z,97472.00
2023-02-12T08:06:12.308Z,97472.00
2023-02-12T08:10:15.122Z,97480.00
2023-02-12T08:14:20.807Z,97463.00
2023-02-12T08:18:24.947Z,97474.00
2023-02-12T08:22:27.705Z,97467.00
2023-02-12T08:26:32.589Z,97470.00
2023-02-12T08:30:35.365Z,97463.00
2023-02-12T08:34:39.474Z,97474.00
2023-02-12T08:38:43.578Z,97475.00
2023-02-12T08:42:46.362Z,97474.00
2023-02-12T08:46:51.093Z,97467.00
2023-02-12T08:50:55.228Z,97474.00
2023-02-12T08:54:58.004Z,97465.00
2023-02-12T08:59:02.242Z,97469.00
2023-02-12T09:03:05.156Z,97473.00
2023-02-12T09:07:10.949Z,97470.00
2023-02-12T09:11:16.857Z,97486.00
2023-02-12T09:15:19.648Z,97484.00
2023-02-12T09:19:23.053Z,97479.00
2023-02-12T09:23:27.351Z,97478.00
2023-02-12T09:27:31.378Z,97481.00
2023-02-12T09:31:35.017Z,97495.00
2023-02-12T09:35:38.180Z,97485.00
2023-02-12T09:39:42.318Z,97491.00
2023-02-12T09:43:49.105Z,97494.00
2023-02-12T09:48:00.609Z,97495.00
2023-02-12T09:52:05.204Z,97505.00
2023-02-12T09:56:15.269Z,97495.00
2023-02-12T10:00:22.830Z,97502.00
2023-02-12T10:04:27.295Z,97504.00
2023-02-12T10:08:41.749Z,97503.00
2023-02-12T10:12:53.426Z,97494.00
2023-02-12T10:17:05.307Z,97505.00
2023-02-12T10:21:21.380Z,97524.00
2023-02-12T10:25:29.831Z,97529.00
2023-02-12T10:29:39.187Z,97524.00
2023-02-12T10:33:45.656Z,97531.00
2023-02-12T10:37:53.779Z,97531.00
2023-02-12T10:42:02.321Z,97534.00
2023-02-12T10:46:06.614Z,97532.00
2023-02-12T10:50:20.776Z,97529.00
2023-02-12T10:54:41.459Z,97536.00
2023-02-12T10:58:53.536Z,97533.00
2023-02-12T11:03:21.192Z,97534.00
2023-02-12T11:07:24.834Z,97532.00
2023-02-12T11:11:30.641Z,97527.00
2023-02-12T11:15:38.504Z,97533.00
2023-02-12T11:19:42.854Z,97538.00
2023-02-12T11:23:46.115Z,97534.00
2023-02-12T11:28:01.471Z,97534.00
2023-02-12T11:32:08.437Z,97533.00
2023-02-12T11:36:21.244Z,97530.00
2023-02-12T11:40:26.295Z,97529.00
2023-02-12T11:44:33.539Z,97533.00
2023-02-12T11:48:39.276Z,97540.00
2023-02-12T11:52:45.092Z,97532.00
2023-02-12T11:56:48.370Z,97533.00
2023-02-12T12:00:57.464Z,97534.00
2023-02-12T12:05:13.125Z,97527.00
2023-02-12T12:09:24.361Z,97520.00
2023-02-12T12:13:33.280Z,97527.00
2023-02-12T12:17:59.650Z,97525.00
2023-02-12T12:22:06.661Z,97527.00
2023-02-12T12:26:16.152Z,97516.00
2023-02-12T12:30:25.973Z,97517.00
2023-02-12T12:34:29.883Z,97516.00
2023-02-12T12:38:45.592Z,97523.00
2023-02-12T12:43:04.591Z,97509.00
2023-02-12T12:47:20.207Z,97505.00
2023-02-12T12:51:35.716Z,97499.00
2023-02-12T12:56:01.746Z,97500.00
2023-02-12T13:00:14.829Z,97499.00
2023-02-12T13:04:40.985Z,97486.00
2023-02-12T13:09:01.227Z,97489.00
2023-02-12T13:13:14.386Z,97491.00
2023-02-12T13:17:26.946Z,97497.00
2023-02-12T13:21:42.412Z,97495.00
2023-02-12T13:25:53.479Z,97488.00
2023-02-12T13:30:00.905Z,97478.00
2023-02-12T13:34:08.479Z,97485.00
2023-02-12T13:38:19.967Z,97491.00
2023-02-12T13:42:37.309Z,97483.00
2023-02-12T13:46:50.658Z,97481.00
2023-02-12T13:51:02.575Z,97492.00
2023-02-12T13:55:24.796Z,97485.00
2023-02-12T13:59:48.848Z,97485.00
2023-02-12T14:03:51.680Z,97488.00
2023-02-12T14:07:58.567Z,97484.00
2023-02-12T14:12:03.115Z,97487.00
2023-02-12T14:16:36.015Z,97486.00
2023-02-12T14:20:40.147Z,97483.00
2023-02-12T14:24:52.690Z,97488.00
2023-02-12T14:28:58.224Z,97479.00
2023-02-12T14:33:18.239Z,97476.00
2023-02-12T14:37:37.999Z,97478.00
2023-02-12T14:41:45.411Z,97475.00
2023-02-12T14:45:48.264Z,97472.00
2023-02-12T14:49:55.771Z,97472.00
2023-02-12T14:54:01.556Z,97470.00
2023-02-12T14:58:08.852Z,97474.00
2023-02-12T15:02:20.999Z,97476.00
2023-02-12T15:06:33.933Z,97463.00
2023-02-12T15:10:41.035Z,97462.00
2023-02-12T15:14:52.464Z,97460.00
2023-02-12T15:18:59.236Z,97442.00
2023-02-12T15:23:03.075Z,97444.00
2023-02-12T15:27:06.471Z,97444.00
2023-02-12T15:31:11.510Z,97452.00
2023-02-12T15:35:24.463Z,97450.00
2023-02-12T15:39:28.866Z,97446.00
2023-02-12T15:43:35.912Z,97444.00
2023-02-12T15:47:41.665Z,97441.00
2023-02-12T15:51:45.405Z,97438.00
2023-02-12T15:55:52.415Z,97436.00
2023-02-12T15:59:58.258Z,97442.00
2023-02-12T16:04:06.924Z,97432.00
2023-02-12T16:08:15.772Z,97436.00
2023-02-12T16:12:22.636Z,97436.00
2023-02-12T16:16:27.961Z,97437.00
2023-02-12T16:20:33.002Z,97421.00
2023-02-12T16:24:38.405Z,97425.00
2023-02-12T16:28:41.384Z,97414.00
2023-02-12T16:32:45.102Z,97426.00
2023-02-12T16:36:49.297Z,97415.00
2023-02-12T16:41:23.482Z,97422.00
2023-02-12T16:45:37.934Z,97437.00
2023-02-12T16:49:55.020Z,97441.00
2023-02-12T16:54:00.369Z,97444.00
2023-02-12T16:58:03.534Z,97438.00
2023-02-12T17:02:11.978Z,97442.00
2023-02-12T17:06:15.104Z,97437.00
2023-02-12T17:10:20.111Z,97444.00
2023-02-12T17:14:22.928Z,97446.00
2023-02-12T17:18:26.581Z,97448.00
2023-02-12T17:22:29.414Z,97443.00
2023-02-12T17:26:33.558Z,97444.00
2023-02-12T17:30:37.333Z,97454.00
2023-02-12T17:34:48.316Z,97455.00
2023-02-12T17:38:52.024Z,97441.00
2023-02-12T17:42:56.166Z,97442.00
2023-02-12T17:46:58.994Z,97447.00
2023-02-12T17:51:01.735Z,97438.00
2023-02-12T17:55:05.406Z,97441.00
2023-02-12T17:59:09.555Z,97442.00
2023-02-12T18:03:12.320Z,97446.00
2023-02-12T18:07:15.062Z,97444.00
2023-02-12T18:11:19.024Z,97443.00
2023-02-12T18:15:23.143Z,97433.00
2023-02-12T18:19:27.903Z,97440.00
2023-02-12T18:23:30.716Z,97443.00
2023-02-12T18:27:33.532Z,97431.00
2023-02-12T18:31:37.803Z,97439.00
2023-02-12T18:35:41.709Z,97441.00
2023-02-12T18:39:44.484Z,97429.00
2023-02-12T18:43:47.924Z,97439.00
2023-02-12T18:47:52.106Z,97427.00
2023-02-12T18:51:55.215Z,97437.00
2023-02-12T18:55:58.311Z,97433.00
2023-02-12T19:00:01.373Z,97441.00
2023-02-12T19:04:08.069Z,97435.00
2023-02-12T19:08:10.901Z,97419.00
2023-02-12T19:12:13.706Z,97426.00
2023-02-12T19:16:18.432Z,97411.00
2023-02-12T19:20:22.670Z,97407.00
2023-02-12T19:24:28.686Z,97413.00
2023-02-12T19:28:38.712Z,97414.00
2023-02-12T19:32:41.567Z,97407.00
2023-02-12T19:36:46.333Z,97406.00
2023-02-12T19:40:49.125Z,97410.00
2023-02-12T19:44:51.895Z,97411.00
2023-02-12T19:48:57.289Z,97403.00
2023-02-12T19:53:01.526Z,97404.00
2023-02-12T19:57:09.026Z,97396.00
2023-02-12T20:01:14.098Z,97391.00
2023-02-12T20:05:17.223Z,97395.00
2023-02-12T20:09:22.777Z,97399.00
2023-02-12T20:13:25.696Z,97400.00
2023-02-12T20:17:28.500Z,97403.00
2023-02-12T20:21:31.377Z,97408.00
2023-02-12T20:25:35.524Z,97401.00
2023-02-12T20:29:38.336Z,97411.00
2023-02-12T20:33:41.704Z,97405.00
2023-02-12T20:37:45.676Z,97414.00
2023-02-12T20:41:50.205Z,97418.00
2023-02-12T20:45:52.989Z,97415.00
2023-02-12T20:49:56.256Z,97414.00
2023-02-12T20:54:01.122Z,97410.00
2023-02-12T20:58:05.226Z,97423.00
2023-02-12T21:02:08.532Z,97411.00
2023-02-12T21:06:11.772Z,97413.00
2023-02-12T21:10:14.555Z,97424.00
2023-02-12T21:14:22.443Z,97417.00
2023-02-12T21:18:28.100Z,97419.00
2023-02-12T21:22:30.853Z,97417.00
2023-02-12T21:26:34.483Z,97427.00
2023-02-12T21:30:38.663Z,97417.00
2023-02-12T21:34:41.553Z,97421.00
2023-02-12T21:38:46.317Z,97417.00
2023-02-12T21:42:49.109Z,97422.00
2023-02-12T21:46:53.817Z,97422.00
2023-02-12T21:50:57.090Z,97423.00
2023-02-12T21:55:00.080Z,97415.00
2023-02-12T21:59:02.910Z,97423.00
2023-02-12T22:03:07.117Z,97420.00
2023-02-12T22:07:10.729Z,97416.00
2023-02-12T22:11:14.448Z,97412.00
2023-02-12T22:15:17.247Z,97425.00
2023-02-12T22:19:21.397Z,97424.00
2023-02-12T22:23:24.146Z,97421.00
2023-02-12T22:27:26.932Z,97432.00
2023-02-12T22:31:31.960Z,97428.00
2023-02-12T22:35:36.179Z,97432.00
2023-02-12T22:39:38.914Z,97423.00
2023-02-12T22:43:42.590Z,97427.00
2023-02-12T22:47:45.480Z,97422.00
2023-02-12T22:51:49.644Z,97421.00
2023-02-12T22:55:52.903Z,97436.00
2023-02-12T22:59:55.707Z,97421.00
2023-02-12T23:03:59.025Z,97409.00
2023-02-12T23:08:03.219Z,97419.00
2023-02-12T23:12:07.912Z,97421.00
2023-02-12T23:16:10.689Z,97409.00
2023-02-12T23:20:14.720Z,97420.00
2023-02-12T23:24:18.864Z,97414.00
2023-02-12T23:28:22.422Z,97412.00
2023-02-12T23:32:25.264Z,97406.00
2023-02-12T23:36:28.257Z,97407.00
2023-02-12T23:40:33.072Z,97412.00
2023-02-12T23:44:35.870Z,97415.00
2023-02-12T23:48:38.677Z,97409.00
2023-02-12T23:52:41.508Z,97409.00
2023-02-12T23:56:45.634Z,97387.00
